Time;durP1;ratioP1;P1;durP2;ratioP2;P2;SDS_P1;SDS_P2;PMS_P1;PMS_P2;Temp;Humidity;BMP_temperature;BMP_pressure;BME280_temperature;BME280_humidity;BME280_pressure;Samples;Min_cycle;Max_cycle;Signal;HPM_P1;HPM_P2
2023/04/06 00:01:07;;;;;;;4.93;4.53;;;2.00;1.00;;;;;;5096123;28;20404;-90
2023/04/06 00:03:32;;;;;;;5.50;4.90;;;2.00;1.00;;;;;;5093928;28;20539;-90
2023/04/06 00:05:58;;;;;;;5.30;4.80;;;1.90;1.00;;;;;;5095366;28;20380;-91
2023/04/06 00:08:23;;;;;;;5.57;5.10;;;1.90;1.00;;;;;;5096046;28;20483;-91
2023/04/06 00:10:49;;;;;;;5.13;4.63;;;3.00;1.00;;;;;;5095888;28;20407;-90
2023/04/06 00:13:15;;;;;;;5.40;4.50;;;1.90;99.90;;;;;;5096149;28;20459;-89
2023/04/06 00:15:40;;;;;;;5.45;4.85;;;1.90;1.00;;;;;;5090606;28;20455;-90
2023/04/06 00:18:06;;;;;;;5.13;4.63;;;1.80;1.00;;;;;;5074229;28;20391;-90
2023/04/06 00:20:44;;;;;;;6.55;5.00;;;1.80;1.00;;;;;;5074323;28;20376;-90
2023/04/06 00:23:10;;;;;;;5.45;4.90;;;1.90;1.00;;;;;;5073634;28;20443;-91
2023/04/06 00:25:47;;;;;;;5.80;5.15;;;1.80;1.00;;;;;;5077404;28;20391;-91
2023/04/06 00:28:12;;;;;;;6.68;5.10;;;1.80;99.90;;;;;;5080114;28;20425;-89
2023/04/06 00:30:38;;;;;;;5.33;4.63;;;1.80;99.90;;;;;;5075244;28;20539;-89
2023/04/06 00:33:03;;;;;;;6.43;5.00;;;2.00;1.00;;;;;;5077202;28;20453;-90
2023/04/06 00:35:29;;;;;;;5.47;4.97;;;1.80;1.00;;;;;;5073122;28;20418;-90
2023/04/06 00:37:54;;;;;;;5.20;4.80;;;1.70;1.00;;;;;;5077291;28;20508;-90
2023/04/06 00:40:20;;;;;;;5.60;5.00;;;1.70;1.00;;;;;;5077485;28;20433;-90
2023/04/06 00:42:46;;;;;;;5.50;5.00;;;1.80;99.90;;;;;;5077481;28;20892;-90
2023/04/06 00:45:11;;;;;;;4.97;4.47;;;2.90;99.90;;;;;;5077543;28;20383;-89
2023/04/06 00:47:37;;;;;;;4.93;4.43;;;1.80;99.90;;;;;;5077070;28;20445;-89
2023/04/06 00:50:03;;;;;;;5.37;4.60;;;1.70;99.90;;;;;;5079238;28;20398;-89
2023/04/06 00:52:28;;;;;;;5.00;4.50;;;1.70;1.00;;;;;;5077527;28;21070;-89
2023/04/06 00:54:54;;;;;;;5.30;4.80;;;3.20;99.90;;;;;;5079444;28;20483;-89
2023/04/06 00:57:20;;;;;;;5.32;4.82;;;1.10;99.90;;;;;;5077584;28;20390;-90
2023/04/06 00:59:46;;;;;;;5.75;4.82;;;1.70;99.90;;;;;;5077351;28;20388;-90
2023/04/06 01:02:12;;;;;;;5.60;4.40;;;1.70;99.90;;;;;;5078408;28;20801;-90
2023/04/06 01:04:38;;;;;;;6.07;4.97;;;1.80;1.00;;;;;;5078773;28;20395;-90
2023/04/06 01:07:04;;;;;;;5.60;4.85;;;1.70;99.90;;;;;;5078583;28;20407;-90
2023/04/06 01:09:30;;;;;;;4.95;4.40;;;1.50;1.00;;;;;;5079302;28;20900;-90
2023/04/06 01:11:59;;;;;;;5.20;4.40;;;1.50;1.00;;;;;;5077168;28;20412;-90
2023/04/06 01:14:25;;;;;;;4.70;4.30;;;1.60;1.00;;;;;;5075426;28;20391;-89
2023/04/06 01:16:51;;;;;;;5.13;4.63;;;1.50;1.00;;;;;;5075955;28;20472;-90
2023/04/06 01:19:17;;;;;;;5.75;4.90;;;1.60;1.00;;;;;;5075922;28;20388;-89
2023/04/06 01:21:43;;;;;;;5.20;4.70;;;1.50;1.00;;;;;;5076279;28;20475;-90
2023/04/06 01:24:09;;;;;;;5.20;4.60;;;1.40;1.00;;;;;;5077306;28;20407;-90
2023/04/06 01:26:35;;;;;;;5.15;4.70;;;1.50;1.00;;;;;;5076387;28;20387;-89
2023/04/06 01:29:02;;;;;;;5.50;4.90;;;1.40;1.00;;;;;;5076307;28;20440;-89
2023/04/06 01:31:28;;;;;;;5.20;4.80;;;1.40;1.00;;;;;;5076301;28;20417;-90
2023/04/06 01:33:54;;;;;;;5.30;4.80;;;1.50;1.00;;;;;;5075596;28;20434;-88
2023/04/06 01:36:20;;;;;;;5.53;5.00;;;1.40;1.00;;;;;;5074757;28;20403;-88
2023/04/06 01:38:46;;;;;;;6.40;5.10;;;1.40;1.00;;;;;;5074701;28;20448;-89
2023/04/06 01:41:11;;;;;;;6.80;4.63;;;1.40;1.00;;;;;;5074289;28;20463;-88
2023/04/06 01:43:37;;;;;;;4.50;4.10;;;1.50;1.00;;;;;;5075000;28;20399;-88
2023/04/06 01:46:02;;;;;;;6.20;4.70;;;1.30;1.00;;;;;;5086424;28;20387;-89
2023/04/06 01:48:28;;;;;;;5.15;4.25;;;1.30;1.00;;;;;;5094920;28;20455;-89
2023/04/06 01:50:54;;;;;;;5.30;4.80;;;1.30;1.00;;;;;;5075165;28;20384;-89
2023/04/06 01:53:20;;;;;;;4.60;4.20;;;1.30;1.00;;;;;;5074677;28;20394;-89
2023/04/06 01:55:46;;;;;;;5.32;4.80;;;1.20;1.00;;;;;;5074245;28;20745;-89
2023/04/06 01:58:12;;;;;;;5.78;4.50;;;1.20;1.00;;;;;;5074379;28;20826;-88
2023/04/06 02:00:38;;;;;;;4.53;4.13;;;1.30;1.00;;;;;;5074485;28;20981;-89
2023/04/06 02:03:03;;;;;;;5.15;4.65;;;1.20;1.00;;;;;;5074387;28;20546;-88
2023/04/06 02:05:31;;;;;;;4.78;4.22;;;1.20;1.00;;;;;;5074052;28;20492;-89
2023/04/06 02:07:57;;;;;;;5.32;4.60;;;1.20;1.00;;;;;;5076190;28;20444;-89
2023/04/06 02:10:23;;;;;;;4.75;4.35;;;1.30;1.00;;;;;;5096154;22;20475;-84
2023/04/06 02:12:49;;;;;;;4.93;4.43;;;1.30;1.00;;;;;;5076530;28;20945;-85
2023/04/06 02:15:15;;;;;;;5.18;4.68;;;1.20;1.00;;;;;;5076890;28;20475;-85
2023/04/06 02:17:41;;;;;;;6.17;5.00;;;1.10;1.00;;;;;;5075788;28;20383;-85
2023/04/06 02:20:07;;;;;;;5.00;4.50;;;1.10;1.00;;;;;;5076314;28;20815;-85
2023/04/06 02:22:33;;;;;;;6.38;4.75;;;1.00;1.00;;;;;;5077571;28;20382;-84
2023/04/06 02:24:59;;;;;;;5.37;4.50;;;1.00;1.00;;;;;;5077701;28;20388;-85
2023/04/06 02:27:24;;;;;;;6.07;4.80;;;1.00;1.00;;;;;;5078297;28;20376;-85
2023/04/06 02:29:50;;;;;;;5.20;4.70;;;1.10;1.00;;;;;;5077786;28;20450;-85
2023/04/06 02:32:15;;;;;;;5.00;4.60;;;1.00;1.00;;;;;;5075923;28;20376;-85
2023/04/06 02:34:41;;;;;;;5.37;4.30;;;1.00;1.00;;;;;;5075263;28;20384;-86
2023/04/06 02:37:06;;;;;;;5.20;4.70;;;1.10;1.00;;;;;;5075173;28;20384;-85
2023/04/06 02:39:32;;;;;;;5.50;4.30;;;1.20;1.00;;;;;;5077141;28;20388;-85
2023/04/06 02:41:57;;;;;;;4.93;4.43;;;1.10;1.00;;;;;;5077006;28;20944;-85
2023/04/06 02:44:23;;;;;;;5.40;4.40;;;1.10;1.00;;;;;;5075679;28;20417;-85
2023/04/06 02:46:48;;;;;;;5.40;4.70;;;1.00;1.00;;;;;;5074608;28;20411;-85
2023/04/06 02:49:14;;;;;;;5.23;4.73;;;1.00;1.00;;;;;;5077253;28;20907;-85
2023/04/06 02:51:40;;;;;;;4.97;4.57;;;0.90;1.00;;;;;;5075359;28;20418;-85
2023/04/06 02:54:05;;;;;;;5.10;4.60;;;1.00;1.00;;;;;;5076518;28;20497;-85
2023/04/06 02:56:31;;;;;;;5.10;4.60;;;1.00;1.00;;;;;;5075505;28;20819;-85
2023/04/06 02:58:56;;;;;;;4.43;4.10;;;0.90;1.00;;;;;;5075016;28;20398;-85
2023/04/06 03:01:22;;;;;;;5.00;4.50;;;0.90;1.00;;;;;;5075595;28;20392;-85
2023/04/06 03:03:47;;;;;;;5.05;4.65;;;0.90;1.00;;;;;;5077025;28;20400;-85
2023/04/06 03:06:13;;;;;;;6.10;4.70;;;0.90;1.00;;;;;;5074225;28;20762;-85
2023/04/06 03:08:38;;;;;;;4.90;4.40;;;0.90;1.00;;;;;;5076188;28;20399;-85
2023/04/06 03:11:04;;;;;;;4.80;4.30;;;0.80;1.00;;;;;;5077105;28;20396;-85
2023/04/06 03:13:29;;;;;;;5.30;4.80;;;0.80;1.00;;;;;;5082975;28;20758;-85
2023/04/06 03:15:55;;;;;;;4.43;4.03;;;0.80;1.00;;;;;;5081514;28;20969;-85
2023/04/06 03:18:23;;;;;;;4.60;4.20;;;0.80;1.00;;;;;;5072538;28;20949;-85
2023/04/06 03:20:48;;;;;;;4.60;4.20;;;0.70;1.00;;;;;;5072140;28;20384;-85
2023/04/06 03:23:14;;;;;;;4.90;4.30;;;0.80;1.00;;;;;;5073451;28;20804;-85
2023/04/06 03:25:39;;;;;;;4.50;4.10;;;0.80;1.00;;;;;;5071671;28;20463;-85
2023/04/06 03:28:05;;;;;;;4.10;3.80;;;0.90;1.00;;;;;;5072507;28;20387;-85
2023/04/06 03:30:30;;;;;;;4.90;4.40;;;0.80;1.00;;;;;;5072124;28;20388;-85
2023/04/06 03:32:56;;;;;;;4.97;4.57;;;0.90;1.00;;;;;;5074997;28;20466;-85
2023/04/06 03:35:21;;;;;;;5.47;5.00;;;0.80;1.00;;;;;;5071810;28;20379;-85
2023/04/06 03:37:47;;;;;;;5.00;4.60;;;0.90;1.00;;;;;;5073492;28;20383;-85
2023/04/06 03:40:12;;;;;;;4.57;4.17;;;0.90;1.00;;;;;;5075261;28;20390;-85
2023/04/06 03:42:38;;;;;;;7.00;4.50;;;0.80;1.00;;;;;;5074067;28;20452;-85
2023/04/06 03:45:04;;;;;;;5.10;4.60;;;0.90;1.00;;;;;;5076135;28;20456;-85
2023/04/06 03:47:29;;;;;;;4.70;4.30;;;0.80;1.00;;;;;;5074701;28;20391;-85
2023/04/06 03:49:55;;;;;;;5.17;4.67;;;0.70;1.00;;;;;;5072382;28;20877;-85
2023/04/06 03:52:22;;;;;;;5.00;4.50;;;0.80;1.00;;;;;;5071916;28;20434;-85
2023/04/06 03:54:48;;;;;;;5.00;4.60;;;0.70;1.00;;;;;;5073326;28;20376;-85
2023/04/06 03:57:14;;;;;;;4.82;4.20;;;0.70;1.00;;;;;;5074001;28;20380;-85
2023/04/06 03:59:40;;;;;;;5.45;4.82;;;0.80;1.00;;;;;;5075740;28;20808;-85
2023/04/06 04:02:05;;;;;;;4.80;4.40;;;0.80;1.00;;;;;;5071507;28;20387;-85
2023/04/06 04:04:31;;;;;;;5.10;4.07;;;0.70;1.00;;;;;;5072642;28;20913;-85
2023/04/06 04:06:56;;;;;;;4.70;4.30;;;0.60;1.00;;;;;;5092931;28;20394;-85
2023/04/06 04:09:22;;;;;;;5.10;4.60;;;0.70;1.00;;;;;;5078950;28;20387;-85
2023/04/06 04:11:47;;;;;;;5.33;4.20;;;0.60;1.00;;;;;;5078511;28;20426;-85
2023/04/06 04:14:13;;;;;;;5.30;4.80;;;0.60;1.00;;;;;;5078873;28;20410;-85
2023/04/06 04:16:39;;;;;;;4.90;4.40;;;0.70;1.00;;;;;;5078462;28;20461;-85
2023/04/06 04:19:05;;;;;;;5.60;4.30;;;0.60;1.00;;;;;;5077337;28;20380;-85
2023/04/06 04:21:31;;;;;;;4.72;4.32;;;0.60;1.00;;;;;;5078354;28;20388;-85
2023/04/06 04:23:57;;;;;;;4.80;4.40;;;0.70;1.00;;;;;;5075495;28;20399;-85
2023/04/06 04:26:22;;;;;;;4.90;4.07;;;0.50;1.00;;;;;;5075599;28;20395;-85
2023/04/06 04:28:48;;;;;;;6.03;4.10;;;0.60;1.00;;;;;;5073917;28;20376;-85
2023/04/06 04:31:14;;;;;;;5.10;4.60;;;0.70;1.00;;;;;;5075110;28;20794;-86
2023/04/06 04:33:39;;;;;;;5.13;4.60;;;0.70;1.00;;;;;;5074127;28;20441;-85
2023/04/06 04:36:05;;;;;;;4.50;4.10;;;0.80;1.00;;;;;;5074177;28;20933;-85
2023/04/06 04:38:31;;;;;;;5.18;4.68;;;0.80;1.00;;;;;;5071773;28;20393;-86
2023/04/06 04:40:56;;;;;;;5.00;4.40;;;0.70;1.00;;;;;;5073643;28;20387;-85
2023/04/06 04:43:22;;;;;;;4.80;4.40;;;0.80;1.00;;;;;;5073721;28;20427;-85
2023/04/06 04:45:47;;;;;;;5.57;4.90;;;0.80;1.00;;;;;;5055359;28;20416;-84
2023/04/06 04:48:13;;;;;;;4.80;4.40;;;0.60;1.00;;;;;;5054621;28;20430;-86
2023/04/06 04:50:38;;;;;;;4.43;4.03;;;0.60;1.00;;;;;;5056216;28;20460;-87
2023/04/06 04:53:05;;;;;;;5.00;4.60;;;0.60;1.00;;;;;;5057518;28;20388;-86
2023/04/06 04:55:31;;;;;;;4.90;4.50;;;0.60;1.00;;;;;;5057079;28;20389;-86
2023/04/06 04:57:57;;;;;;;5.10;4.60;;;0.60;1.00;;;;;;5057720;28;20409;-86
2023/04/06 05:00:22;;;;;;;5.60;4.72;;;0.60;1.00;;;;;;5053566;28;20382;-85
2023/04/06 05:02:48;;;;;;;5.30;4.80;;;0.60;1.00;;;;;;5054105;28;20396;-84
2023/04/06 05:05:14;;;;;;;5.40;4.90;;;0.60;1.00;;;;;;5052322;28;20390;-85
2023/04/06 05:07:39;;;;;;;5.40;4.90;;;0.70;1.00;;;;;;5053673;28;20442;-85
2023/04/06 05:10:05;;;;;;;4.83;4.33;;;0.60;1.00;;;;;;5051126;28;20806;-85
2023/04/06 05:12:31;;;;;;;5.28;4.50;;;0.60;1.00;;;;;;5052732;28;20397;-85
2023/04/06 05:14:57;;;;;;;5.35;4.75;;;0.80;1.00;;;;;;5051124;28;20455;-85
2023/04/06 05:17:22;;;;;;;4.85;4.45;;;0.80;1.00;;;;;;5053282;28;20476;-85
2023/04/06 05:19:48;;;;;;;5.40;4.90;;;0.90;99.90;;;;;;5052125;28;20381;-84
2023/04/06 05:22:17;;;;;;;5.30;4.80;;;0.90;1.00;;;;;;5050546;28;20921;-85
2023/04/06 05:24:43;;;;;;;5.90;5.40;;;0.90;99.90;;;;;;5056676;28;20918;-85
2023/04/06 05:27:09;;;;;;;5.50;4.93;;;1.00;1.00;;;;;;5056962;28;20416;-86
2023/04/06 05:29:35;;;;;;;5.32;4.82;;;1.00;99.90;;;;;;5056013;28;20424;-85
2023/04/06 05:32:01;;;;;;;4.72;4.32;;;0.90;99.90;;;;;;5055928;28;20389;-86
2023/04/06 05:34:26;;;;;;;5.53;5.00;;;1.10;99.90;;;;;;5056330;28;20381;-86
2023/04/06 05:36:52;;;;;;;5.40;4.90;;;1.10;99.90;;;;;;5057802;28;20393;-86
2023/04/06 05:39:17;;;;;;;4.80;4.10;;;1.00;99.90;;;;;;5058660;28;20416;-85
2023/04/06 05:41:43;;;;;;;5.60;4.40;;;0.90;99.90;;;;;;5084770;28;20408;-87
2023/04/06 05:44:08;;;;;;;4.93;4.43;;;1.00;99.90;;;;;;5083881;28;20407;-85
2023/04/06 05:46:34;;;;;;;5.13;4.60;;;1.20;99.90;;;;;;5080212;28;20388;-85
2023/04/06 05:49:00;;;;;;;5.50;4.30;;;1.20;1.00;;;;;;5081340;28;20380;-85
2023/04/06 05:51:26;;;;;;;5.70;4.40;;;1.10;1.00;;;;;;5078382;28;20423;-85
2023/04/06 05:53:52;;;;;;;4.93;4.50;;;1.40;1.00;;;;;;5080287;28;20488;-85
2023/04/06 05:56:17;;;;;;;5.30;4.80;;;1.30;1.00;;;;;;5079768;28;20403;-85
2023/04/06 05:58:43;;;;;;;5.30;4.80;;;1.30;1.00;;;;;;5079659;28;20391;-85
2023/04/06 06:01:09;;;;;;;5.23;4.40;;;1.30;1.00;;;;;;5078743;28;20421;-85
2023/04/06 06:03:35;;;;;;;5.40;4.90;;;1.30;1.00;;;;;;5072356;28;20423;-86
2023/04/06 06:06:01;;;;;;;5.23;4.73;;;1.30;1.00;;;;;;5069527;28;20397;-85
2023/04/06 06:08:27;;;;;;;5.80;5.20;;;1.40;99.90;;;;;;5070731;28;20391;-86
2023/04/06 06:10:53;;;;;;;5.28;4.78;;;1.50;1.00;;;;;;5073217;28;20498;-86
2023/04/06 06:13:18;;;;;;;5.40;4.90;;;1.60;1.00;;;;;;5067805;28;20422;-85
2023/04/06 06:15:44;;;;;;;5.50;4.88;;;1.60;1.00;;;;;;5067600;28;20389;-85
2023/04/06 06:18:10;;;;;;;6.22;5.25;;;1.70;99.90;;;;;;5067545;28;20398;-85
2023/04/06 06:20:35;;;;;;;5.88;4.90;;;1.70;1.00;;;;;;5057268;28;20377;-85
2023/04/06 06:23:01;;;;;;;5.77;5.20;;;1.80;99.90;;;;;;5060507;28;20412;-85
2023/04/06 06:25:26;;;;;;;5.30;4.80;;;1.80;99.90;;;;;;5059979;28;20387;-86
2023/04/06 06:27:52;;;;;;;6.00;4.60;;;2.00;2.90;;;;;;5059015;28;20424;-85
2023/04/06 06:30:17;;;;;;;6.30;4.90;;;2.00;46.60;;;;;;5059159;28;20429;-84
2023/04/06 06:32:43;;;;;;;7.20;5.00;;;2.10;99.90;;;;;;5063176;28;20389;-86
2023/04/06 06:35:09;;;;;;;4.67;4.27;;;2.30;1.00;;;;;;5065468;28;20485;-84
2023/04/06 06:37:34;;;;;;;5.20;4.40;;;2.30;99.90;;;;;;5055045;28;20772;-86
2023/04/06 06:40:00;;;;;;;4.90;4.30;;;2.40;99.90;;;;;;5053221;28;20454;-84
2023/04/06 06:42:25;;;;;;;5.50;5.00;;;2.50;80.80;;;;;;5054516;28;20393;-85
2023/04/06 06:44:51;;;;;;;5.30;4.80;;;2.70;77.20;;;;;;5054788;28;20405;-85
2023/04/06 06:47:17;;;;;;;5.70;5.10;;;2.60;79.40;;;;;;5054533;28;20476;-85
2023/04/06 06:49:43;;;;;;;5.22;4.30;;;2.80;72.60;;;;;;5054908;28;20461;-85
2023/04/06 06:52:08;;;;;;;5.18;4.57;;;3.00;74.50;;;;;;5053716;28;20388;-85
2023/04/06 06:54:34;;;;;;;5.10;4.68;;;3.20;62.60;;;;;;5056213;28;20401;-85
2023/04/06 06:57:00;;;;;;;5.20;4.40;;;3.20;66.60;;;;;;5053528;28;20871;-85
2023/04/06 06:59:25;;;;;;;5.50;5.00;;;3.10;63.70;;;;;;5054484;28;20393;-85
2023/04/06 07:01:51;;;;;;;4.60;4.20;;;3.30;61.00;;;;;;5055815;28;20381;-85
2023/04/06 07:04:17;;;;;;;5.33;4.83;;;3.40;67.60;;;;;;5071669;28;20385;-85
2023/04/06 07:06:42;;;;;;;4.93;4.43;;;3.50;57.60;;;;;;5075941;28;20412;-86
2023/04/06 07:09:08;;;;;;;4.90;4.50;;;3.60;56.90;;;;;;5075895;28;20376;-85
2023/04/06 07:11:33;;;;;;;5.30;4.80;;;3.80;55.50;;;;;;5070556;28;20499;-86
2023/04/06 07:13:59;;;;;;;5.50;4.43;;;3.90;56.70;;;;;;5066856;28;20393;-85
2023/04/06 07:16:24;;;;;;;5.20;4.70;;;4.10;54.30;;;;;;5065916;28;20413;-85
2023/04/06 07:18:50;;;;;;;5.13;4.70;;;4.20;54.10;;;;;;5066470;28;20405;-85
2023/04/06 07:21:16;;;;;;;6.10;4.80;;;4.50;50.50;;;;;;5063925;28;20386;-86
2023/04/06 07:23:41;;;;;;;5.72;5.13;;;4.60;41.60;;;;;;5060888;28;20404;-85
2023/04/06 07:26:07;;;;;;;5.53;4.70;;;4.60;38.40;;;;;;5075213;28;20405;-86
2023/04/06 07:28:32;;;;;;;6.33;4.60;;;4.70;36.70;;;;;;5070598;28;20385;-85
2023/04/06 07:30:58;;;;;;;4.90;4.50;;;4.80;36.00;;;;;;5059767;28;20386;-85
2023/04/06 07:33:24;;;;;;;5.10;4.60;;;5.00;34.80;;;;;;5057832;28;20407;-85
2023/04/06 07:35:51;;;;;;;5.85;4.60;;;5.00;33.80;;;;;;5058162;28;20385;-86
2023/04/06 07:38:16;;;;;;;5.70;4.70;;;5.20;33.80;;;;;;5058641;28;20412;-85
2023/04/06 07:40:42;;;;;;;4.93;4.45;;;5.40;31.00;;;;;;5058588;28;20935;-85
2023/04/06 07:43:07;;;;;;;4.85;4.45;;;5.50;29.80;;;;;;5077026;28;20432;-85
2023/04/06 07:45:33;;;;;;;5.47;4.80;;;5.50;31.00;;;;;;5075190;28;20399;-86
2023/04/06 07:47:58;;;;;;;4.53;3.88;;;5.70;31.20;;;;;;5085019;28;20430;-85
2023/04/06 07:50:24;;;;;;;5.20;4.70;;;5.90;28.90;;;;;;5080432;28;20754;-86
2023/04/06 07:52:50;;;;;;;5.60;4.50;;;6.00;28.00;;;;;;5077939;28;20379;-86
2023/04/06 07:55:15;;;;;;;5.23;4.53;;;6.10;29.00;;;;;;5076664;28;20388;-85
2023/04/06 07:57:41;;;;;;;5.33;4.40;;;6.30;25.70;;;;;;5075985;28;20758;-85
2023/04/06 08:00:09;;;;;;;4.30;3.90;;;6.40;25.20;;;;;;5079252;28;20408;-85
2023/04/06 08:02:34;;;;;;;4.45;4.05;;;6.50;22.60;;;;;;5076532;28;20384;-85
2023/04/06 08:05:00;;;;;;;4.13;3.70;;;6.70;21.60;;;;;;5077125;28;20716;-85
2023/04/06 08:07:26;;;;;;;4.85;4.35;;;6.80;21.80;;;;;;5077162;28;20749;-86
2023/04/06 08:09:52;;;;;;;4.97;4.53;;;7.00;20.90;;;;;;5073540;28;20795;-85
2023/04/06 08:12:17;;;;;;;5.00;4.53;;;7.10;19.50;;;;;;5107831;22;20811;-84
2023/04/06 08:14:43;;;;;;;4.60;4.20;;;7.30;20.60;;;;;;5097069;28;20390;-84
2023/04/06 08:17:08;;;;;;;6.10;5.30;;;7.40;18.80;;;;;;5081625;28;20396;-84
2023/04/06 08:19:34;;;;;;;5.78;4.90;;;7.50;16.80;;;;;;5096650;28;20801;-83
2023/04/06 08:22:00;;;;;;;5.18;4.68;;;7.60;14.30;;;;;;5089413;28;20391;-84
2023/04/06 08:24:25;;;;;;;5.70;5.20;;;7.80;12.60;;;;;;5081594;28;20404;-84
2023/04/06 08:26:51;;;;;;;5.40;4.90;;;8.00;9.80;;;;;;5085487;28;21267;-84
2023/04/06 08:29:17;;;;;;;5.90;5.32;;;8.10;8.70;;;;;;5091725;28;20451;-84
2023/04/06 08:31:43;;;;;;;8.98;5.85;;;8.30;7.00;;;;;;5104601;28;20457;-82
2023/04/06 08:34:08;;;;;;;5.70;5.20;;;8.40;6.20;;;;;;5072704;28;20480;-83
2023/04/06 08:36:34;;;;;;;5.05;4.65;;;8.40;5.60;;;;;;5061384;28;20410;-83
2023/04/06 08:39:00;;;;;;;5.93;5.40;;;8.70;4.30;;;;;;5077624;28;20437;-84
2023/04/06 08:41:26;;;;;;;5.88;5.28;;;8.80;4.50;;;;;;5059370;28;20387;-84
2023/04/06 08:43:58;;;;;;;6.10;5.35;;;8.80;3.60;;;;;;5057336;28;20490;-85
2023/04/06 08:46:30;;;;;;;5.30;4.80;;;8.90;3.90;;;;;;5052875;28;20391;-83
2023/04/06 08:48:58;;;;;;;6.88;5.63;;;8.80;2.80;;;;;;5068143;28;20395;-84
2023/04/06 08:51:26;;;;;;;6.93;5.53;;;8.90;2.70;;;;;;5064512;28;20391;-84
2023/04/06 08:53:57;;;;;;;6.75;6.15;;;9.00;2.40;;;;;;5068828;28;20381;-84
2023/04/06 08:56:26;;;;;;;6.82;5.70;;;9.10;2.40;;;;;;5073372;28;20797;-85
2023/04/06 08:58:53;;;;;;;6.43;5.75;;;8.90;1.80;;;;;;5081197;28;20808;-84
2023/04/06 09:01:27;;;;;;;6.40;5.80;;;9.00;2.50;;;;;;5070732;28;20390;-83
2023/04/06 09:04:04;;;;;;;7.00;6.13;;;9.20;2.20;;;;;;5072333;28;20540;-84
2023/04/06 09:06:30;;;;;;;6.25;5.65;;;9.20;1.80;;;;;;5089916;28;20382;-84
2023/04/06 09:08:57;;;;;;;6.20;5.50;;;9.30;1.70;;;;;;5080569;28;20379;-84
2023/04/06 09:11:23;;;;;;;6.07;5.38;;;9.20;1.30;;;;;;5079112;28;20947;-84
2023/04/06 09:13:50;;;;;;;8.38;6.22;;;9.40;1.00;;;;;;5079185;28;20388;-83
2023/04/06 09:16:16;;;;;;;8.05;6.22;;;9.50;1.00;;;;;;5061344;28;20426;-84
2023/04/06 09:18:42;;;;;;;8.20;5.95;;;9.60;1.30;;;;;;5080305;28;20397;-83
2023/04/06 09:21:08;;;;;;;6.70;5.80;;;9.70;1.00;;;;;;5099358;28;20479;-84
2023/04/06 09:23:34;;;;;;;6.93;6.03;;;10.00;1.00;;;;;;5098769;28;20402;-84
2023/04/06 09:26:12;;;;;;;8.20;6.75;;;10.00;1.00;;;;;;5101083;28;21006;-82
2023/04/06 09:28:54;;;;;;;7.72;6.00;;;10.10;1.00;;;;;;5081854;28;20389;-84
2023/04/06 09:31:29;;;;;;;6.70;6.00;;;10.20;1.00;;;;;;5075552;28;20437;-83
2023/04/06 09:33:55;;;;;;;7.70;6.40;;;10.30;1.00;;;;;;5060188;28;20816;-84
2023/04/06 09:36:33;;;;;;;7.15;6.07;;;10.40;1.00;;;;;;5060377;28;20762;-85
2023/04/06 09:39:03;;;;;;;7.05;6.03;;;10.20;1.00;;;;;;5077438;28;20450;-84
2023/04/06 09:41:35;;;;;;;6.50;5.80;;;10.30;1.00;;;;;;5097753;27;20376;-81
2023/04/06 09:44:09;;;;;;;6.50;5.60;;;10.50;1.00;;;;;;5087062;28;20436;-81
2023/04/06 09:46:43;;;;;;;6.88;5.50;;;10.90;1.00;;;;;;5073890;28;20468;-84
2023/04/06 09:49:10;;;;;;;8.40;5.90;;;10.70;1.00;;;;;;5080657;28;20441;-84
2023/04/06 09:51:37;;;;;;;7.90;6.43;;;10.90;1.00;;;;;;5064256;28;20386;-84
2023/04/06 09:54:04;;;;;;;6.00;5.10;;;10.90;1.00;;;;;;5078837;28;20451;-84
2023/04/06 09:56:58;;;;;;;6.40;5.70;;;10.90;1.00;;;;;;5078376;28;20466;-84
2023/04/06 10:00:13;;;;;;;6.38;5.78;;;11.00;1.00;;;;;;5040220;28;20385;-85
2023/04/06 10:02:54;;;;;;;8.30;6.10;;;11.10;1.00;;;;;;5039617;28;20405;-84
2023/04/06 10:05:46;;;;;;;6.55;5.50;;;11.10;1.00;;;;;;5039137;28;20389;-83
2023/04/06 10:08:13;;;;;;;6.85;5.30;;;11.10;1.00;;;;;;5073455;28;20377;-84
2023/04/06 10:10:38;;;;;;;6.07;5.35;;;10.80;1.00;;;;;;5096984;28;20385;-84
2023/04/06 10:13:05;;;;;;;5.90;5.30;;;11.10;1.00;;;;;;5097635;28;20370;-83
2023/04/06 10:15:31;;;;;;;6.20;5.60;;;11.00;1.00;;;;;;5097869;28;20385;-84
2023/04/06 10:17:58;;;;;;;6.40;5.30;;;11.10;1.00;;;;;;5079265;28;20386;-84
2023/04/06 10:20:31;;;;;;;6.37;5.33;;;11.30;1.00;;;;;;5080312;28;20374;-83
2023/04/06 10:23:06;;;;;;;6.40;5.57;;;11.30;1.00;;;;;;5099607;28;20729;-84
2023/04/06 10:25:34;;;;;;;5.63;4.82;;;11.30;1.00;;;;;;5087608;28;20764;-83
2023/04/06 10:28:01;;;;;;;6.13;5.53;;;11.40;1.00;;;;;;5060262;28;20391;-83
2023/04/06 10:30:27;;;;;;;5.28;4.78;;;11.40;1.00;;;;;;5077678;28;20458;-82
2023/04/06 10:32:53;;;;;;;7.68;5.20;;;11.20;1.00;;;;;;5056455;28;20392;-83
2023/04/06 10:35:18;;;;;;;5.60;4.60;;;11.70;1.00;;;;;;5062563;28;20382;-84
2023/04/06 10:37:51;;;;;;;5.00;4.50;;;11.60;1.00;;;;;;5079958;28;20518;-84
2023/04/06 10:40:25;;;;;;;6.15;5.43;;;11.50;1.00;;;;;;5097316;28;20813;-85
2023/04/06 10:42:51;;;;;;;5.87;5.10;;;11.80;1.00;;;;;;5097561;28;20381;-84
2023/04/06 10:45:21;;;;;;;6.60;5.20;;;12.00;1.00;;;;;;5064961;28;20387;-84
2023/04/06 10:47:47;;;;;;;7.07;5.13;;;11.80;1.00;;;;;;5077890;28;20459;-84
2023/04/06 10:50:17;;;;;;;5.23;4.73;;;11.70;1.00;;;;;;5059518;28;20889;-84
2023/04/06 10:52:45;;;;;;;7.82;4.88;;;11.90;1.00;;;;;;5059071;28;20375;-83
2023/04/06 10:55:12;;;;;;;5.80;4.70;;;12.00;1.00;;;;;;5057881;28;20395;-83
2023/04/06 10:57:38;;;;;;;6.20;5.00;;;11.90;1.00;;;;;;5058563;28;20384;-85
2023/04/06 11:00:05;;;;;;;6.00;4.70;;;11.80;1.00;;;;;;5077167;28;20406;-84
2023/04/06 11:02:31;;;;;;;5.93;4.57;;;12.00;1.00;;;;;;5057955;28;20414;-81
2023/04/06 11:04:58;;;;;;;5.95;4.70;;;11.90;1.00;;;;;;5076427;28;20411;-82
2023/04/06 11:07:26;;;;;;;5.32;4.70;;;12.20;1.00;;;;;;5059621;28;20416;-84
2023/04/06 11:09:52;;;;;;;6.20;4.90;;;12.30;1.00;;;;;;5055566;28;20455;-85
2023/04/06 11:12:25;;;;;;;5.65;4.80;;;12.30;1.00;;;;;;5078740;28;20388;-86
2023/04/06 11:15:03;;;;;;;5.80;4.60;;;12.60;1.00;;;;;;5063412;28;20396;-85
2023/04/06 11:17:30;;;;;;;5.43;4.53;;;12.60;1.00;;;;;;5075416;28;20766;-85
2023/04/06 11:19:56;;;;;;;7.07;4.38;;;12.90;1.00;;;;;;5080056;28;20410;-85
2023/04/06 11:22:22;;;;;;;5.40;4.30;;;12.90;1.00;;;;;;5076500;28;20739;-85
2023/04/06 11:24:48;;;;;;;6.10;4.40;;;13.20;1.00;;;;;;5077236;28;20430;-86
2023/04/06 11:27:15;;;;;;;4.80;3.60;;;13.20;1.00;;;;;;5076979;28;20403;-86
2023/04/06 11:29:41;;;;;;;5.05;4.03;;;13.10;1.00;;;;;;5076356;28;20398;-85
2023/04/06 11:32:08;;;;;;;4.40;3.95;;;13.40;1.00;;;;;;5076274;28;20376;-85
2023/04/06 11:34:36;;;;;;;5.68;3.95;;;13.40;1.00;;;;;;5076228;28;20394;-85
2023/04/06 11:37:06;;;;;;;4.30;3.80;;;13.90;1.00;;;;;;5078182;28;20395;-86
2023/04/06 11:39:50;;;;;;;4.18;3.78;;;14.40;1.00;;;;;;5076642;28;20384;-86
2023/04/06 11:42:51;;;;;;;4.20;3.80;;;14.70;1.00;;;;;;5076650;28;20392;-84
2023/04/06 11:45:16;;;;;;;3.90;3.42;;;14.40;1.00;;;;;;5061450;28;20408;-89
2023/04/06 11:47:42;;;;;;;4.20;3.80;;;14.20;1.00;;;;;;5055140;28;20541;-87
2023/04/06 11:50:16;;;;;;;4.40;3.60;;;14.80;1.00;;;;;;5054679;28;20423;-87
2023/04/06 11:52:57;;;;;;;5.95;4.35;;;14.40;1.00;;;;;;5056453;28;20449;-88
2023/04/06 11:55:23;;;;;;;4.60;4.20;;;14.50;1.00;;;;;;5059278;28;20404;-86
2023/04/06 11:57:49;;;;;;;4.72;4.00;;;13.90;1.00;;;;;;5059389;28;20376;-88
2023/04/06 12:00:15;;;;;;;4.85;4.15;;;14.70;1.00;;;;;;5054618;28;20387;-88
2023/04/06 12:02:46;;;;;;;5.03;4.53;;;15.00;1.00;;;;;;5071045;28;20384;-87
2023/04/06 12:05:12;;;;;;;4.63;3.60;;;15.20;1.00;;;;;;5070629;28;20396;-88
2023/04/06 12:07:37;;;;;;;4.70;4.30;;;15.70;1.00;;;;;;5079546;28;20440;-87
2023/04/06 12:10:04;;;;;;;5.50;5.00;;;15.90;1.00;;;;;;5090589;28;20383;-88
2023/04/06 12:12:30;;;;;;;4.15;3.65;;;14.90;1.00;;;;;;5090647;28;20423;-86
2023/04/06 12:14:56;;;;;;;4.20;3.80;;;15.20;1.00;;;;;;5087685;28;20386;-86
2023/04/06 12:17:21;;;;;;;4.53;4.13;;;15.80;1.00;;;;;;5070025;28;20408;-87
2023/04/06 12:19:47;;;;;;;6.30;4.60;;;15.40;1.00;;;;;;5082329;28;20401;-87
2023/04/06 12:22:12;;;;;;;6.10;4.40;;;15.40;1.00;;;;;;5054772;28;20398;-86
2023/04/06 12:24:38;;;;;;;5.07;4.57;;;15.80;1.00;;;;;;5055131;28;20491;-86
2023/04/06 12:27:04;;;;;;;5.13;4.63;;;15.60;1.00;;;;;;5075158;28;20521;-89
2023/04/06 12:29:30;;;;;;;4.82;4.32;;;15.90;1.00;;;;;;5061429;28;20384;-87
2023/04/06 12:31:56;;;;;;;5.20;4.70;;;16.10;1.00;;;;;;5070936;28;20391;-89
2023/04/06 12:34:21;;;;;;;5.03;4.50;;;15.10;1.00;;;;;;5072019;28;20923;-87
2023/04/06 12:36:47;;;;;;;5.20;4.70;;;15.20;1.00;;;;;;5053975;28;20455;-87
2023/04/06 12:39:12;;;;;;;5.00;4.50;;;15.00;1.00;;;;;;5055624;28;20486;-86
2023/04/06 12:41:41;;;;;;;4.50;4.00;;;14.20;1.00;;;;;;5064406;28;20406;-87
2023/04/06 12:44:06;;;;;;;4.78;4.28;;;14.80;1.00;;;;;;5067221;28;20430;-87
2023/04/06 12:46:32;;;;;;;5.70;5.10;;;15.00;1.00;;;;;;5087580;28;20411;-87
2023/04/06 12:48:58;;;;;;;6.32;4.88;;;14.80;1.00;;;;;;5075105;28;20408;-88
2023/04/06 12:51:28;;;;;;;5.13;4.63;;;15.10;1.00;;;;;;5073128;28;20383;-88
2023/04/06 12:53:53;;;;;;;5.82;4.50;;;14.70;1.00;;;;;;5070633;28;20391;-87
2023/04/06 12:56:20;;;;;;;5.25;4.50;;;13.90;1.00;;;;;;5061181;28;20453;-89
2023/04/06 12:58:46;;;;;;;4.95;4.40;;;13.80;1.00;;;;;;5072082;28;20391;-88
2023/04/06 13:01:12;;;;;;;5.32;4.40;;;13.80;1.00;;;;;;5053285;28;20434;-87